Wilmington, OH

12:04 AM EST on December 10, 2016 (GMT -0500)
2.2 N Wilmington | | Change Station
Active Advisory: Special Statement

Elev 1053 ft 39.47 °N, 83.84 °W | Updated 5 minutes ago

Scattered Clouds
Scattered Clouds
20.3 °F
Feels Like 20 °F
N
0.0
Wind Variable Wind from WSW
Gusts 2.0 mph

Today
High -- | Low -- °F
--% Chance of Precip.
Yesterday
High -- | Low -- °F
Precip. -- in
Pressure 30.59 in
Visibility 10.0 miles
Clouds Scattered Clouds 3600 ft
Windchill 20 °F
Dew Point 16 °F
Humidity 83%
Rainfall in
Snow Depth Not available.
7:44 AM 5:11 PM
Waxing Gibbous, 80% visible
METAR KILN 100454Z AUTO 24005KT 10SM SCT036 M07/M09 A3049 RMK AO2 SLP359 T10671094 410281083
Pressure 30.59 in
Visibility 10.0 miles
Clouds Scattered Clouds 3600 ft
Windchill 20 °F
Dew Point 16 °F
Humidity 83%
Rainfall in
Snow Depth Not available.
7:44 AM 5:11 PM
Waxing Gibbous, 80% visible
METAR KILN 100454Z AUTO 24005KT 10SM SCT036 M07/M09 A3049 RMK AO2 SLP359 T10671094 410281083

10-Day Weather Forecast

Almanac

Astronomy

Dec. 10, 2016 Rise Set
Actual Time
Civil Twilight
Nautical Twilight
Astronomical Twilight
Moon
Length of Visible Light
Length of Day
Tomorrow will be .
, % of the Moon is Illuminated

Today's Extremes

State Highs State Lows

Community

WunderPhotos

Upload Photos

1,956,529 photos uploaded!

WunderBlog® & News

Nearby

Air Quality

  Air Quality AQ Index Pollutant
Not available.

Snow Depth

Station Depth Elevation

Earthquake Activity

City Distance Mag. Time & Date
Minimum magnitude displayed is 2.5.

Coastal Water Temperatures

Place Temperature

Stations

Nearby Weather Stations

Station Location Temp. Windchill Dew Point Humidity Wind Precip. Elev Updated Type
                   

Watches & Warnings

Special Statement
Issued: 9:20 PM EST Dec. 9, 2016 – National Weather Service

... Isolated slick spots possible tonight...

Occasional snow showers will persist into the overnight hours with
a very light dusting possible in some areas. With temperatures in
the 20s... this will result in a few slick spots on area roadways.



920 PM EST Fri Dec 9 2016

... Isolated slick spots possible tonight...

Occasional snow showers will persist into the overnight hours with
a very light dusting possible in some areas. With temperatures in
the 20s... this will result in a few slick spots on area roadways.



920 PM EST Fri Dec 9 2016

... Isolated slick spots possible tonight...

Occasional snow showers will persist into the overnight hours with
a very light dusting possible in some areas. With temperatures in
the 20s... this will result in a few slick spots on area roadways.